• Join FlightAware (Why Join?)
  • Login
  • US Flag 
10:34AM EDT


 

Airport Tracker/Info


-or-


 

Live Flight TrackerFlight Track Log ✈ RAX44 ✈ 25-Apr-2013 ✈ KPNE - KPTK

Flight Track Log - Related Links

Times and Time Zones

All times are in EDT time to prevent confusion due to time zone crossing. See the RAX44 flight status page for this flight to view local times or setup timezone preferences in your user account.

Time Position Orientation Groundspeed Altitude Reporting Facility
EDT Latitude Longitude Course Direction KTS MPH feet Rate Location/Type
05:29PM 40.3239 -75.7339 304° West 349 402 16,900  Level New York Center
05:30PM 40.3778 -75.8386 304° West 358 412 17,200 2,040 Climbing New York Center
05:31PM 40.3975 -75.9600 282° West 345 397 21,000 3,420 Climbing New York Center
05:32PM 40.4272 -76.0878 287° West 340 391 24,100 3,420 Climbing New York Center
05:33PM 40.4603 -76.1856 294° West 326 375 27,800 1,920 Climbing New York Center
05:34PM 40.4922 -76.3056 289° West 326 375 28,000 480 Climbing New York Center
05:35PM 40.5192 -76.4389 285° West 353 406 28,800 1,140 Climbing New York Center
05:36PM 40.5486 -76.5642 287° West 369 425 30,400 1,500 Climbing New York Center
05:37PM 40.5769 -76.6650 290° West 369 425 31,900 1,620 Climbing New York Center
05:38PM 40.6214 -76.8192 291° West 369 425 33,700 1,020 Climbing New York Center
05:39PM 40.6561 -76.9508 289° West 379 436 34,000 120 Climbing New York Center
05:40PM 40.6886 -77.0881 287° West 385 443 34,000  Level New York Center
05:41PM 40.7272 -77.2231 291° West 390 449 34,100 1,080 Climbing New York Center
05:42PM 40.7706 -77.3422 296° West 390 449 36,200 1,860 Climbing New York Center
05:43PM 40.7928 -77.4678 283° West 369 425 37,800 900 Climbing New York Center
05:44PM 40.8106 -77.5931 281° West 356 410 38,000 540 Climbing New York Center
05:46PM 40.8883 -77.8997 289° West 361 415 39,700 540 Climbing Cleveland Center
05:47PM 40.9203 -78.0192 290° West 361 415 40,000 120 Climbing Cleveland Center
05:48PM 40.9461 -78.1531 284° West 366 421 40,000  Level Cleveland Center
05:49PM 40.9592 -78.2761 278° West 366 421 40,000  Level Cleveland Center
05:50PM 40.9783 -78.4103 281° West 372 428 40,000  Level Cleveland Center
05:51PM 40.9975 -78.5500 280° West 377 434 40,000  Level Cleveland Center
05:52PM 41.0103 -78.6872 277° West 377 434 40,000  Level Cleveland Center
05:53PM 41.0272 -78.8244 279° West 382 440 40,000  Level Cleveland Center
05:54PM 41.0439 -78.9644 279° West 387 445 40,000  Level Cleveland Center
05:55PM 41.0603 -79.1017 279° West 392 451 40,000  Level Cleveland Center
05:56PM 41.0767 -79.2389 279° West 387 445 40,000  Level Cleveland Center
05:57PM 41.0928 -79.3764 279° West 387 445 40,000 -240 Level Cleveland Center
05:58PM 41.1108 -79.5139 280° West 387 445 39,600 -600 Descending Cleveland Center
05:59PM 41.1203 -79.6569 275° West 387 445 38,900 -600 Descending Cleveland Center
06:00PM 41.1297 -79.8139 275° West 393 452 38,400 -600 Descending Cleveland Center
06:01PM 41.1472 -79.9517 280° West 388 447 37,800 -540 Descending Cleveland Center
06:02PM 41.1647 -80.0728 281° West 383 441 37,400 -540 Descending Cleveland Center
06:03PM 41.1839 -80.2078 281° West 383 441 36,800 -900 Descending Cleveland Center
06:04PM 41.1969 -80.3678 276° West 389 448 35,700 -1,080 Descending Cleveland Center
06:05PM 41.1992 -80.5142 271° West 403 464 34,700 -960 Descending Cleveland Center
06:06PM 41.2178 -80.6606 280° West 403 464 33,800 -900 Descending Cleveland Center
06:07PM 41.2386 -80.8042 281° West 408 470 32,900 -780 Descending Cleveland Center
06:08PM 41.2589 -80.9478 281° West 402 463 32,300 -660 Descending Cleveland Center
06:09PM 41.2792 -81.0889 281° West 396 456 31,600 -840 Descending Cleveland Center
06:10PM 41.3267 -81.2247 295° West 396 456 30,700 -960 Descending Cleveland Center
06:11PM 41.3800 -81.3525 299° West 402 463 29,700 -1,620 Descending Cleveland Center
06:12PM 41.4292 -81.4803 297° West 394 453 27,500 -2,100 Descending Cleveland Center
06:13PM 41.4739 -81.6086 295° West 384 442 25,500 -1,740 Descending Cleveland Center
06:14PM 41.5228 -81.7314 298° West 384 442 24,100 -780 Descending Cleveland Center
06:15PM 41.5717 -81.8406 301° West 363 418 24,000 -480 Descending Cleveland Center
06:16PM 41.6078 -81.9467 295° West 350 403 23,200 -1,440 Descending Cleveland Center
06:17PM 41.6439 -82.0669 292° West 344 396 21,200 -1,980 Descending Cleveland Center
06:18PM 41.6861 -82.1819 296° West 344 396 19,300 -2,340 Descending Cleveland Center
06:19PM 41.7325 -82.2833 302° West 331 381 16,800 -3,000 Descending Cleveland Center
06:20PM 41.7686 -82.3872 295° West 320 368 13,300 -3,180 Descending Cleveland Center
06:21PM 41.8025 -82.4856 295° West 307 353 10,100 -1,680 Descending Cleveland Center
06:22PM 41.8281 -82.5756 291° West 282 325 10,000  Descending Cleveland Center
06:23PM 41.8642 -82.6547 302° West 258 297 10,100 -720 Climbing Cleveland Center
06:24PM 41.9303 -82.6819 343° North 236 272 8,600 -1,980 Descending Cleveland Center
06:25PM 42.0214 -82.7242 341° North 256 295 5,800 -2,100 Descending Cleveland Center
06:26PM 42.0647 -82.7425 343° North 248 285 4,500 -960 Descending Cleveland Center
06:27PM 42.1328 -82.7728 342° North 253 291 4,100 -300 Descending Cleveland Center
06:27PM 42.1661 -82.7850 345° North 255 293 4,100  Level Cleveland Center
06:28PM 42.2011 -82.8058 336° Northwest 253 291 4,100  Level Cleveland Center
06:29PM 42.2342 -82.8183 344° North 264 304 4,100  Level Cleveland Center
06:30PM 42.3022 -82.8600 336° Northwest 257 296 4,100  Level Cleveland Center
06:31PM 42.3658 -82.9044 333° Northwest 254 292 4,100 -420 Level Cleveland Center
06:31PM 42.4214 -82.9403 335° Northwest 247 284 3,300 -540 Descending Cleveland Center
06:32PM 42.4681 -83.0067 314° West 234 269 3,100 -300 Descending Cleveland Center
06:34PM 42.5167 -83.0650 319° Northwest 216 249 2,700 -300 Descending Cleveland Center
06:35PM 42.5572 -83.1172 317° Northwest 192 221 2,500 -120 Descending Cleveland Center
06:36PM 42.5831 -83.1803 299° West 175 201 2,500 240 Level Cleveland Center
06:37PM 42.6153 -83.2325 310° West 190 219 3,100 180 Climbing Cleveland Center
06:38PM 42.6431 -83.2900 303° West 181 208 2,900 -600 Descending Cleveland Center
06:39PM 42.6583 -83.3444 291° West 129 148 2,000 -900 Descending Cleveland Center